NORTHEAST SUFFOLK  -  Freeze Watch Freeze Watch        NORTHWEST SUFFOLK  -  Freeze Watch Freeze Watch        SOUTHEAST SUFFOLK  -  Freeze Watch Freeze Watch        SOUTHWEST SUFFOLK  -  Freeze Watch Freeze Watch      

Active alerts

Northwest Suffolk
  Details for Northwest Suffolk Freeze Watch
Southwest Suffolk
  Details for Southwest Suffolk Freeze Watch
Northeast Suffolk
  Details for Northeast Suffolk Freeze Watch
Southeast Suffolk
  Details for Southeast Suffolk Freeze Watch


WXM80 ListenWXM80 Stop

You find our weather info also at:

UK Metoffice

WeatherCloud

Weather Underground

Northeastern Weather Network

AWEKAS

Citizen Weather Observer Program (CWOP)

HAMweather, WeatherForYou, PWS Weather


Weather Underground History page Text

Daily Summary for November 4, 2017 Units:  Both    English   Metric
« Previous Day
Next Day »
Daily Weekly Monthly Yearly Custom
  High: Low: Average:
Temperature: 55.7 °F /  13.2 °C 48.2 °F /  9 °C 51.3 °F /  10.7 °C
Dew Point: 47.3 °F /  8.5 °C 38.7 °F /  3.7 °C 42.2 °F /  5.7 °C
Humidity: 88 % 61 % 71 %
Wind Speed: 11.1 mph /  17.9 km/h - 3.5 mph /  5.6 km/h
Wind Gust: 18.4 mph /  29.6 km/h - -
Wind:- - East
Pressure: 30.38 in /  1028.7 hPa 30.10 in /  1019.2 hPa -
Precipitation: 0.01 in /  0.25 mm    
Historical Graphs
 
 
Tabular Data for November 4, 2017
Time Temperature Dew Point Pressure Wind Wind Speed Wind Gust Humidity Rainfall Rate (Hourly)
00:02 52.8 °F /  11.6 °C 41.0 °F /  5 °C 30.21 in /  1022.9 hPa NNE 10.2 mph /  16.4 km/h 13.8 mph /  22.2 km/h 64 % 0.00 in /  0 mm
00:07 52.8 °F /  11.6 °C 41.0 °F /  5 °C 30.21 in /  1022.9 hPa NNE 8.1 mph /  13 km/h 12.7 mph /  20.4 km/h 64 % 0.00 in /  0 mm
00:12 52.7 °F /  11.5 °C 40.9 °F /  4.9 °C 30.22 in /  1023.2 hPa NE 10.7 mph /  17.2 km/h 16.1 mph /  25.9 km/h 64 % 0.00 in /  0 mm
00:17 52.6 °F /  11.4 °C 40.8 °F /  4.9 °C 30.22 in /  1023.2 hPa NNE 9.1 mph /  14.6 km/h 12.7 mph /  20.4 km/h 64 % 0.00 in /  0 mm
00:22 52.5 °F /  11.4 °C 40.3 °F /  4.6 °C 30.22 in /  1023.2 hPa NNE 8.9 mph /  14.3 km/h 13.8 mph /  22.2 km/h 63 % 0.00 in /  0 mm
00:27 52.4 °F /  11.3 °C 40.2 °F /  4.6 °C 30.21 in /  1022.9 hPa NNE 7.2 mph /  11.6 km/h 15.0 mph /  24.1 km/h 63 % 0.00 in /  0 mm
00:32 52.3 °F /  11.3 °C 40.1 °F /  4.5 °C 30.22 in /  1023.2 hPa ENE 8.4 mph /  13.5 km/h 17.3 mph /  27.8 km/h 63 % 0.00 in /  0 mm
00:37 52.2 °F /  11.2 °C 40.4 °F /  4.7 °C 30.21 in /  1022.9 hPa NNE 8.4 mph /  13.5 km/h 12.7 mph /  20.4 km/h 64 % 0.00 in /  0 mm
00:42 52.1 °F /  11.2 °C 39.9 °F /  4.4 °C 30.22 in /  1023.2 hPa North 7.4 mph /  11.9 km/h 11.0 mph /  17.7 km/h 63 % 0.00 in /  0 mm
00:47 52.0 °F /  11.1 °C 40.2 °F /  4.6 °C 30.22 in /  1023.2 hPa NNE 11.1 mph /  17.9 km/h 16.0 mph /  25.7 km/h 64 % 0.00 in /  0 mm
00:52 52.0 °F /  11.1 °C 40.2 °F /  4.6 °C 30.23 in /  1023.6 hPa North 9.0 mph /  14.5 km/h 15.0 mph /  24.1 km/h 64 % 0.00 in /  0 mm
00:57 51.9 °F /  11.1 °C 40.5 °F /  4.7 °C 30.22 in /  1023.2 hPa NNE 7.0 mph /  11.3 km/h 13.0 mph /  20.9 km/h 65 % 0.00 in /  0 mm
01:02 51.9 °F /  11.1 °C 39.7 °F /  4.3 °C 30.23 in /  1023.6 hPa NNE 8.8 mph /  14.2 km/h 16.1 mph /  25.9 km/h 63 % 0.00 in /  0 mm
01:07 51.9 °F /  11.1 °C 40.5 °F /  4.7 °C 30.23 in /  1023.6 hPa NE 6.0 mph /  9.7 km/h 9.0 mph /  14.5 km/h 65 % 0.00 in /  0 mm
01:12 51.8 °F /  11 °C 39.6 °F /  4.2 °C 30.23 in /  1023.6 hPa North 9.6 mph /  15.4 km/h 16.1 mph /  25.9 km/h 63 % 0.00 in /  0 mm
01:17 51.8 °F /  11 °C 40.4 °F /  4.7 °C 30.22 in /  1023.2 hPa NNW 8.7 mph /  14 km/h 11.5 mph /  18.5 km/h 65 % 0.00 in /  0 mm
01:22 51.7 °F /  10.9 °C 39.9 °F /  4.4 °C 30.23 in /  1023.6 hPa NNE 7.5 mph /  12.1 km/h 13.8 mph /  22.2 km/h 64 % 0.00 in /  0 mm
01:27 51.7 °F /  10.9 °C 39.9 °F /  4.4 °C 30.23 in /  1023.6 hPa NNE 7.0 mph /  11.3 km/h 11.5 mph /  18.5 km/h 64 % 0.00 in /  0 mm
01:32 51.6 °F /  10.9 °C 40.6 °F /  4.8 °C 30.22 in /  1023.2 hPa North 8.2 mph /  13.2 km/h 13.8 mph /  22.2 km/h 66 % 0.00 in /  0 mm
01:37 51.6 °F /  10.9 °C 40.2 °F /  4.6 °C 30.22 in /  1023.2 hPa North 5.3 mph /  8.5 km/h 11.5 mph /  18.5 km/h 65 % 0.00 in /  0 mm
01:43 51.5 °F /  10.8 °C 40.1 °F /  4.5 °C 30.23 in /  1023.6 hPa North 9.1 mph /  14.6 km/h 13.8 mph /  22.2 km/h 65 % 0.00 in /  0 mm
01:48 51.5 °F /  10.8 °C 40.5 °F /  4.7 °C 30.23 in /  1023.6 hPa NNE 8.8 mph /  14.2 km/h 11.5 mph /  18.5 km/h 66 % 0.00 in /  0 mm
01:53 51.4 °F /  10.8 °C 40.0 °F /  4.4 °C 30.23 in /  1023.6 hPa NNW 7.4 mph /  11.9 km/h 11.5 mph /  18.5 km/h 65 % 0.01 in /  0.25 mm
01:58 51.4 °F /  10.8 °C 40.4 °F /  4.7 °C 30.23 in /  1023.6 hPa NNW 6.9 mph /  11.1 km/h 10.4 mph /  16.7 km/h 66 % 0.01 in /  0.25 mm
02:03 51.3 °F /  10.7 °C 40.3 °F /  4.6 °C 30.22 in /  1023.2 hPa North 9.1 mph /  14.6 km/h 13.8 mph /  22.2 km/h 66 % 0.01 in /  0.25 mm
02:08 51.3 °F /  10.7 °C 40.3 °F /  4.6 °C 30.22 in /  1023.2 hPa NNE 6.5 mph /  10.5 km/h 11.0 mph /  17.7 km/h 66 % 0.01 in /  0.25 mm
02:13 51.2 °F /  10.7 °C 40.6 °F /  4.8 °C 30.22 in /  1023.2 hPa NNW 6.6 mph /  10.6 km/h 11.5 mph /  18.5 km/h 67 % 0.01 in /  0.25 mm
02:18 51.1 °F /  10.6 °C 40.9 °F /  4.9 °C 30.25 in /  1024.3 hPa NNE 7.2 mph /  11.6 km/h 11.5 mph /  18.5 km/h 68 % 0.01 in /  0.25 mm
02:23 51.0 °F /  10.6 °C 40.4 °F /  4.7 °C 30.25 in /  1024.3 hPa NNW 8.9 mph /  14.3 km/h 16.1 mph /  25.9 km/h 67 % 0.01 in /  0.25 mm
02:28 51.0 °F /  10.6 °C 40.8 °F /  4.9 °C 30.26 in /  1024.6 hPa NNE 6.1 mph /  9.8 km/h 12.0 mph /  19.3 km/h 68 % 0.01 in /  0.25 mm
02:33 50.9 °F /  10.5 °C 40.7 °F /  4.8 °C 30.27 in /  1024.9 hPa North 7.6 mph /  12.2 km/h 12.7 mph /  20.4 km/h 68 % 0.01 in /  0.25 mm
02:38 50.8 °F /  10.4 °C 41.0 °F /  5 °C 30.24 in /  1023.9 hPa NNE 7.9 mph /  12.7 km/h 11.5 mph /  18.5 km/h 69 % 0.01 in /  0.25 mm
02:43 50.8 °F /  10.4 °C 41.0 °F /  5 °C 30.23 in /  1023.6 hPa NNE 5.4 mph /  8.7 km/h 12.7 mph /  20.4 km/h 69 % 0.01 in /  0.25 mm
02:48 50.7 °F /  10.4 °C 40.9 °F /  4.9 °C 30.27 in /  1024.9 hPa NE 6.8 mph /  10.9 km/h 11.5 mph /  18.5 km/h 69 % 0.01 in /  0.25 mm
02:53 50.6 °F /  10.3 °C 40.4 °F /  4.7 °C 30.23 in /  1023.6 hPa NNE 8.6 mph /  13.8 km/h 11.5 mph /  18.5 km/h 68 % 0.00 in /  0 mm
02:58 50.5 °F /  10.3 °C 40.7 °F /  4.8 °C 30.24 in /  1023.9 hPa NE 7.3 mph /  11.7 km/h 10.4 mph /  16.7 km/h 69 % 0.00 in /  0 mm
03:03 50.5 °F /  10.3 °C 40.3 °F /  4.6 °C 30.23 in /  1023.6 hPa NNE 7.8 mph /  12.6 km/h 12.7 mph /  20.4 km/h 68 % 0.00 in /  0 mm
03:08 50.4 °F /  10.2 °C 40.6 °F /  4.8 °C 30.23 in /  1023.6 hPa North 8.6 mph /  13.8 km/h 13.8 mph /  22.2 km/h 69 % 0.00 in /  0 mm
03:14 50.3 °F /  10.2 °C 40.5 °F /  4.7 °C 30.23 in /  1023.6 hPa North 8.9 mph /  14.3 km/h 13.8 mph /  22.2 km/h 69 % 0.00 in /  0 mm
03:19 50.3 °F /  10.2 °C 40.9 °F /  4.9 °C 30.23 in /  1023.6 hPa NNE 7.7 mph /  12.4 km/h 11.5 mph /  18.5 km/h 70 % 0.00 in /  0 mm
03:24 50.3 °F /  10.2 °C 40.9 °F /  4.9 °C 30.23 in /  1023.6 hPa North 6.2 mph /  10 km/h 11.5 mph /  18.5 km/h 70 % 0.00 in /  0 mm
03:29 50.3 °F /  10.2 °C 40.5 °F /  4.7 °C 30.23 in /  1023.6 hPa North 6.9 mph /  11.1 km/h 11.5 mph /  18.5 km/h 69 % 0.00 in /  0 mm
03:34 50.2 °F /  10.1 °C 41.2 °F /  5.1 °C 30.23 in /  1023.6 hPa NNE 8.2 mph /  13.2 km/h 11.5 mph /  18.5 km/h 71 % 0.00 in /  0 mm
03:39 50.1 °F /  10.1 °C 41.1 °F /  5.1 °C 30.27 in /  1024.9 hPa NNE 4.4 mph /  7.1 km/h 11.5 mph /  18.5 km/h 71 % 0.00 in /  0 mm
03:44 50.1 °F /  10.1 °C 41.1 °F /  5.1 °C 30.27 in /  1024.9 hPa North 4.8 mph /  7.7 km/h 6.9 mph /  11.1 km/h 71 % 0.00 in /  0 mm
03:49 50.0 °F /  10 °C 41.0 °F /  5 °C 30.23 in /  1023.6 hPa North 5.0 mph /  8 km/h 8.1 mph /  13 km/h 71 % 0.00 in /  0 mm
03:54 49.9 °F /  9.9 °C 40.9 °F /  4.9 °C 30.28 in /  1025.3 hPa North 3.0 mph /  4.8 km/h 3.5 mph /  5.6 km/h 71 % 0.00 in /  0 mm
03:56 49.9 °F /  9.9 °C 40.9 °F /  4.9 °C 30.28 in /  1025.3 hPa NNE 3.0 mph /  4.8 km/h 9.0 mph /  14.5 km/h 71 % 0.00 in /  0 mm
04:01 49.8 °F /  9.9 °C 41.1 °F /  5.1 °C 30.24 in /  1023.9 hPa North 6.7 mph /  10.8 km/h 9.2 mph /  14.8 km/h 72 % 0.00 in /  0 mm
04:06 49.7 °F /  9.8 °C 41.0 °F /  5 °C 30.25 in /  1024.3 hPa North 6.5 mph /  10.5 km/h 14.0 mph /  22.5 km/h 72 % 0.00 in /  0 mm
04:11 49.6 °F /  9.8 °C 40.6 °F /  4.8 °C 30.24 in /  1023.9 hPa North 4.7 mph /  7.6 km/h 9.2 mph /  14.8 km/h 71 % 0.00 in /  0 mm
04:16 49.6 °F /  9.8 °C 40.9 °F /  4.9 °C 30.23 in /  1023.6 hPa NNE 7.9 mph /  12.7 km/h 13.8 mph /  22.2 km/h 72 % 0.00 in /  0 mm
04:21 49.6 °F /  9.8 °C 40.9 °F /  4.9 °C 30.24 in /  1023.9 hPa North 3.3 mph /  5.3 km/h 8.1 mph /  13 km/h 72 % 0.00 in /  0 mm
04:26 49.5 °F /  9.7 °C 40.8 °F /  4.9 °C 30.28 in /  1025.3 hPa NNE 3.9 mph /  6.3 km/h 6.0 mph /  9.7 km/h 72 % 0.00 in /  0 mm
04:31 49.5 °F /  9.7 °C 41.2 °F /  5.1 °C 30.28 in /  1025.3 hPa NNE 7.6 mph /  12.2 km/h 10.4 mph /  16.7 km/h 73 % 0.00 in /  0 mm
04:36 49.4 °F /  9.7 °C 40.7 °F /  4.8 °C 30.24 in /  1023.9 hPa North 7.8 mph /  12.6 km/h 11.5 mph /  18.5 km/h 72 % 0.00 in /  0 mm
04:41 49.4 °F /  9.7 °C 40.7 °F /  4.8 °C 30.24 in /  1023.9 hPa NNE 5.1 mph /  8.2 km/h 7.0 mph /  11.3 km/h 72 % 0.00 in /  0 mm
04:46 49.3 °F /  9.6 °C 40.7 °F /  4.8 °C 30.24 in /  1023.9 hPa NNE 6.3 mph /  10.1 km/h 9.2 mph /  14.8 km/h 72 % 0.00 in /  0 mm
04:51 49.2 °F /  9.6 °C 40.6 °F /  4.8 °C 30.25 in /  1024.3 hPa NNE 4.8 mph /  7.7 km/h 8.1 mph /  13 km/h 72 % 0.00 in /  0 mm
04:56 49.2 °F /  9.6 °C 40.6 °F /  4.8 °C 30.26 in /  1024.6 hPa NNE 4.8 mph /  7.7 km/h 11.5 mph /  18.5 km/h 72 % 0.00 in /  0 mm
05:01 49.2 °F /  9.6 °C 40.9 °F /  4.9 °C 30.31 in /  1026.3 hPa North 5.6 mph /  9 km/h 10.4 mph /  16.7 km/h 73 % 0.00 in /  0 mm
05:06 49.2 °F /  9.6 °C 40.9 °F /  4.9 °C 30.26 in /  1024.6 hPa NNE 4.4 mph /  7.1 km/h 9.2 mph /  14.8 km/h 73 % 0.00 in /  0 mm
05:11 49.1 °F /  9.5 °C 41.2 °F /  5.1 °C 30.31 in /  1026.3 hPa North 4.4 mph /  7.1 km/h 8.1 mph /  13 km/h 74 % 0.00 in /  0 mm
05:16 49.1 °F /  9.5 °C 40.5 °F /  4.7 °C 30.31 in /  1026.3 hPa NNE 6.2 mph /  10 km/h 11.5 mph /  18.5 km/h 72 % 0.00 in /  0 mm
05:21 49.0 °F /  9.4 °C 40.0 °F /  4.4 °C 30.27 in /  1024.9 hPa NE 6.9 mph /  11.1 km/h 11.5 mph /  18.5 km/h 71 % 0.00 in /  0 mm
05:26 49.0 °F /  9.4 °C 40.0 °F /  4.4 °C 30.28 in /  1025.3 hPa ENE 4.5 mph /  7.2 km/h 10.4 mph /  16.7 km/h 71 % 0.00 in /  0 mm
05:31 49.0 °F /  9.4 °C 40.0 °F /  4.4 °C 30.27 in /  1024.9 hPa North 4.2 mph /  6.8 km/h 8.1 mph /  13 km/h 71 % 0.00 in /  0 mm
05:36 48.9 °F /  9.4 °C 39.9 °F /  4.4 °C 30.27 in /  1024.9 hPa NNE 5.7 mph /  9.2 km/h 10.4 mph /  16.7 km/h 71 % 0.00 in /  0 mm
05:41 48.8 °F /  9.3 °C 40.2 °F /  4.6 °C 30.29 in /  1025.6 hPa North 6.8 mph /  10.9 km/h 11.5 mph /  18.5 km/h 72 % 0.00 in /  0 mm
05:46 48.8 °F /  9.3 °C 40.2 °F /  4.6 °C 30.29 in /  1025.6 hPa NNE 2.4 mph /  3.9 km/h 8.0 mph /  12.9 km/h 72 % 0.00 in /  0 mm
05:51 48.7 °F /  9.3 °C 40.1 °F /  4.5 °C 30.32 in /  1026.6 hPa East 4.8 mph /  7.7 km/h 10.0 mph /  16.1 km/h 72 % 0.00 in /  0 mm
05:56 48.7 °F /  9.3 °C 40.1 °F /  4.5 °C 30.29 in /  1025.6 hPa North 6.9 mph /  11.1 km/h 9.2 mph /  14.8 km/h 72 % 0.00 in /  0 mm
06:01 48.6 °F /  9.2 °C 40.0 °F /  4.4 °C 30.29 in /  1025.6 hPa North 8.7 mph /  14 km/h 11.5 mph /  18.5 km/h 72 % 0.00 in /  0 mm
06:06 48.5 °F /  9.2 °C 39.5 °F /  4.2 °C 30.32 in /  1026.6 hPa NNW 8.1 mph /  13 km/h 11.5 mph /  18.5 km/h 71 % 0.00 in /  0 mm
06:11 48.5 °F /  9.2 °C 39.5 °F /  4.2 °C 30.29 in /  1025.6 hPa NNE 5.1 mph /  8.2 km/h 9.0 mph /  14.5 km/h 71 % 0.00 in /  0 mm
06:16 48.5 °F /  9.2 °C 39.5 °F /  4.2 °C 30.30 in /  1026 hPa North 6.4 mph /  10.3 km/h 11.5 mph /  18.5 km/h 71 % 0.00 in /  0 mm
06:21 48.4 °F /  9.1 °C 39.4 °F /  4.1 °C 30.30 in /  1026 hPa North 5.4 mph /  8.7 km/h 8.0 mph /  12.9 km/h 71 % 0.00 in /  0 mm
06:26 48.4 °F /  9.1 °C 39.1 °F /  3.9 °C 30.30 in /  1026 hPa NNE 6.5 mph /  10.5 km/h 11.5 mph /  18.5 km/h 70 % 0.00 in /  0 mm
06:31 48.4 °F /  9.1 °C 39.1 °F /  3.9 °C 30.32 in /  1026.6 hPa NNE 6.1 mph /  9.8 km/h 11.5 mph /  18.5 km/h 70 % 0.00 in /  0 mm
06:36 48.4 °F /  9.1 °C 39.4 °F /  4.1 °C 30.32 in /  1026.6 hPa North 3.3 mph /  5.3 km/h 6.9 mph /  11.1 km/h 71 % 0.00 in /  0 mm
06:41 48.4 °F /  9.1 °C 39.1 °F /  3.9 °C 30.32 in /  1026.6 hPa NNE 10.4 mph /  16.7 km/h 18.4 mph /  29.6 km/h 70 % 0.00 in /  0 mm
06:42 48.4 °F /  9.1 °C 38.7 °F /  3.7 °C 30.32 in /  1026.6 hPa NE 7.2 mph /  11.6 km/h 13.8 mph /  22.2 km/h 69 % 0.00 in /  0 mm
06:47 48.4 °F /  9.1 °C 39.1 °F /  3.9 °C 30.32 in /  1026.6 hPa NNE 5.8 mph /  9.3 km/h 12.0 mph /  19.3 km/h 70 % 0.00 in /  0 mm
06:52 48.4 °F /  9.1 °C 39.1 °F /  3.9 °C 30.32 in /  1026.6 hPa NNE 3.6 mph /  5.8 km/h 7.0 mph /  11.3 km/h 70 % 0.00 in /  0 mm
06:57 48.4 °F /  9.1 °C 39.1 °F /  3.9 °C 30.32 in /  1026.6 hPa NE 4.4 mph /  7.1 km/h 15.0 mph /  24.1 km/h 70 % 0.00 in /  0 mm
07:02 48.4 °F /  9.1 °C 39.1 °F /  3.9 °C 30.33 in /  1027 hPa North 6.3 mph /  10.1 km/h 12.7 mph /  20.4 km/h 70 % 0.00 in /  0 mm
07:07 48.4 °F /  9.1 °C 39.1 °F /  3.9 °C 30.33 in /  1027 hPa North 9.2 mph /  14.8 km/h 13.8 mph /  22.2 km/h 70 % 0.00 in /  0 mm
07:12 48.4 °F /  9.1 °C 39.4 °F /  4.1 °C 30.32 in /  1026.6 hPa North 9.4 mph /  15.1 km/h 13.8 mph /  22.2 km/h 71 % 0.00 in /  0 mm
07:18 48.3 °F /  9.1 °C 39.3 °F /  4.1 °C 30.33 in /  1027 hPa ENE 3.8 mph /  6.1 km/h 11.5 mph /  18.5 km/h 71 % 0.00 in /  0 mm
07:23 48.3 °F /  9.1 °C 39.7 °F /  4.3 °C 30.33 in /  1027 hPa NNE 5.3 mph /  8.5 km/h 11.5 mph /  18.5 km/h 72 % 0.00 in /  0 mm
07:28 48.3 °F /  9.1 °C 39.7 °F /  4.3 °C 30.33 in /  1027 hPa NNE 6.8 mph /  10.9 km/h 10.4 mph /  16.7 km/h 72 % 0.00 in /  0 mm
07:33 48.2 °F /  9 °C 39.6 °F /  4.2 °C 30.33 in /  1027 hPa NNE 7.4 mph /  11.9 km/h 10.4 mph /  16.7 km/h 72 % 0.00 in /  0 mm
07:38 48.2 °F /  9 °C 39.2 °F /  4 °C 30.33 in /  1027 hPa NNE 6.9 mph /  11.1 km/h 11.5 mph /  18.5 km/h 71 % 0.00 in /  0 mm
07:43 48.2 °F /  9 °C 39.6 °F /  4.2 °C 30.34 in /  1027.3 hPa North 6.3 mph /  10.1 km/h 11.5 mph /  18.5 km/h 72 % 0.00 in /  0 mm
07:48 48.2 °F /  9 °C 39.2 °F /  4 °C 30.34 in /  1027.3 hPa North 7.8 mph /  12.6 km/h 11.5 mph /  18.5 km/h 71 % 0.00 in /  0 mm
07:53 48.2 °F /  9 °C 39.2 °F /  4 °C 30.34 in /  1027.3 hPa NNE 4.7 mph /  7.6 km/h 9.2 mph /  14.8 km/h 71 % 0.00 in /  0 mm
07:58 48.2 °F /  9 °C 39.6 °F /  4.2 °C 30.34 in /  1027.3 hPa NNE 4.3 mph /  6.9 km/h 11.5 mph /  18.5 km/h 72 % 0.00 in /  0 mm
08:03 48.2 °F /  9 °C 39.6 °F /  4.2 °C 30.35 in /  1027.7 hPa NNE 3.8 mph /  6.1 km/h 10.4 mph /  16.7 km/h 72 % 0.00 in /  0 mm
08:08 48.2 °F /  9 °C 39.6 °F /  4.2 °C 30.35 in /  1027.7 hPa NE 4.8 mph /  7.7 km/h 9.2 mph /  14.8 km/h 72 % 0.00 in /  0 mm
08:13 48.2 °F /  9 °C 39.6 °F /  4.2 °C 30.36 in /  1028 hPa North 4.9 mph /  7.9 km/h 10.4 mph /  16.7 km/h 72 % 0.00 in /  0 mm
08:18 48.3 °F /  9.1 °C 39.7 °F /  4.3 °C 30.36 in /  1028 hPa NNE 3.0 mph /  4.8 km/h 6.9 mph /  11.1 km/h 72 % 0.00 in /  0 mm
08:23 48.4 °F /  9.1 °C 40.1 °F /  4.5 °C 30.37 in /  1028.3 hPa NE 1.1 mph /  1.8 km/h 3.5 mph /  5.6 km/h 73 % 0.00 in /  0 mm
08:28 48.4 °F /  9.1 °C 39.8 °F /  4.3 °C 30.37 in /  1028.3 hPa NNE 3.4 mph /  5.5 km/h 6.9 mph /  11.1 km/h 72 % 0.00 in /  0 mm
08:33 48.4 °F /  9.1 °C 39.4 °F /  4.1 °C 30.37 in /  1028.3 hPa North 4.2 mph /  6.8 km/h 8.0 mph /  12.9 km/h 71 % 0.00 in /  0 mm
08:38 48.5 °F /  9.2 °C 39.9 °F /  4.4 °C 30.37 in /  1028.3 hPa East 3.4 mph /  5.5 km/h 6.0 mph /  9.7 km/h 72 % 0.00 in /  0 mm
08:43 48.6 °F /  9.2 °C 40.0 °F /  4.4 °C 30.34 in /  1027.3 hPa East 4.1 mph /  6.6 km/h 10.4 mph /  16.7 km/h 72 % 0.00 in /  0 mm
08:48 48.7 °F /  9.3 °C 40.1 °F /  4.5 °C 30.37 in /  1028.3 hPa North 2.5 mph /  4 km/h 3.5 mph /  5.6 km/h 72 % 0.00 in /  0 mm
08:53 48.7 °F /  9.3 °C 40.4 °F /  4.7 °C 30.37 in /  1028.3 hPa North 2.4 mph /  3.9 km/h 4.0 mph /  6.4 km/h 73 % 0.00 in /  0 mm
08:58 48.8 °F /  9.3 °C 40.5 °F /  4.7 °C 30.37 in /  1028.3 hPa ENE 4.1 mph /  6.6 km/h 6.9 mph /  11.1 km/h 73 % 0.00 in /  0 mm
09:03 48.8 °F /  9.3 °C 40.5 °F /  4.7 °C 30.36 in /  1028 hPa ENE 4.2 mph /  6.8 km/h 8.1 mph /  13 km/h 73 % 0.00 in /  0 mm
09:08 48.9 °F /  9.4 °C 40.3 °F /  4.6 °C 30.37 in /  1028.3 hPa ENE 5.3 mph /  8.5 km/h 9.0 mph /  14.5 km/h 72 % 0.00 in /  0 mm
09:13 49.0 °F /  9.4 °C 39.6 °F /  4.2 °C 30.37 in /  1028.3 hPa ENE 3.7 mph /  6 km/h 10.4 mph /  16.7 km/h 70 % 0.00 in /  0 mm
09:18 49.2 °F /  9.6 °C 40.2 °F /  4.6 °C 30.37 in /  1028.3 hPa ENE 3.3 mph /  5.3 km/h 4.0 mph /  6.4 km/h 71 % 0.00 in /  0 mm
09:23 49.3 °F /  9.6 °C 39.9 °F /  4.4 °C 30.37 in /  1028.3 hPa NE 3.1 mph /  5 km/h 6.9 mph /  11.1 km/h 70 % 0.00 in /  0 mm
09:29 49.5 °F /  9.7 °C 40.1 °F /  4.5 °C 30.37 in /  1028.3 hPa East 6.5 mph /  10.5 km/h 9.2 mph /  14.8 km/h 70 % 0.00 in /  0 mm
09:34 49.7 °F /  9.8 °C 39.9 °F /  4.4 °C 30.37 in /  1028.3 hPa NE 5.5 mph /  8.9 km/h 7.0 mph /  11.3 km/h 69 % 0.00 in /  0 mm
09:39 50.2 °F /  10.1 °C 40.0 °F /  4.4 °C 30.37 in /  1028.3 hPa ENE 4.0 mph /  6.4 km/h 6.9 mph /  11.1 km/h 68 % 0.00 in /  0 mm
09:44 50.8 °F /  10.4 °C 40.2 °F /  4.6 °C 30.38 in /  1028.7 hPa ENE 6.1 mph /  9.8 km/h 10.4 mph /  16.7 km/h 67 % 0.00 in /  0 mm
09:49 51.2 °F /  10.7 °C 40.2 °F /  4.6 °C 30.37 in /  1028.3 hPa ENE 5.2 mph /  8.4 km/h 9.2 mph /  14.8 km/h 66 % 0.00 in /  0 mm
09:54 51.5 °F /  10.8 °C 40.5 °F /  4.7 °C 30.37 in /  1028.3 hPa ENE 5.7 mph /  9.2 km/h 10.4 mph /  16.7 km/h 66 % 0.00 in /  0 mm
09:59 51.6 °F /  10.9 °C 40.2 °F /  4.6 °C 30.37 in /  1028.3 hPa NE 4.9 mph /  7.9 km/h 11.5 mph /  18.5 km/h 65 % 0.00 in /  0 mm
10:04 51.7 °F /  10.9 °C 40.3 °F /  4.6 °C 30.37 in /  1028.3 hPa North 3.3 mph /  5.3 km/h 9.2 mph /  14.8 km/h 65 % 0.00 in /  0 mm
10:09 51.8 °F /  11 °C 40.8 °F /  4.9 °C 30.37 in /  1028.3 hPa NE 4.2 mph /  6.8 km/h 6.0 mph /  9.7 km/h 66 % 0.00 in /  0 mm
10:14 51.7 °F /  10.9 °C 40.7 °F /  4.8 °C 30.37 in /  1028.3 hPa ENE 4.0 mph /  6.4 km/h 6.9 mph /  11.1 km/h 66 % 0.00 in /  0 mm
10:19 51.9 °F /  11.1 °C 41.3 °F /  5.2 °C 30.37 in /  1028.3 hPa NE 6.4 mph /  10.3 km/h 10.4 mph /  16.7 km/h 67 % 0.00 in /  0 mm
10:24 51.9 °F /  11.1 °C 40.1 °F /  4.5 °C 30.37 in /  1028.3 hPa NNE 4.1 mph /  6.6 km/h 8.1 mph /  13 km/h 64 % 0.00 in /  0 mm
10:29 52.1 °F /  11.2 °C 41.1 °F /  5.1 °C 30.37 in /  1028.3 hPa ENE 3.6 mph /  5.8 km/h 6.9 mph /  11.1 km/h 66 % 0.00 in /  0 mm
10:34 52.4 °F /  11.3 °C 41.0 °F /  5 °C 30.37 in /  1028.3 hPa NNE 4.9 mph /  7.9 km/h 8.1 mph /  13 km/h 65 % 0.00 in /  0 mm
10:39 52.5 °F /  11.4 °C 40.3 °F /  4.6 °C 30.38 in /  1028.7 hPa East 4.6 mph /  7.4 km/h 9.2 mph /  14.8 km/h 63 % 0.00 in /  0 mm
10:42 52.4 °F /  11.3 °C 39.8 °F /  4.3 °C 30.38 in /  1028.7 hPa ENE 5.1 mph /  8.2 km/h 8.1 mph /  13 km/h 62 % 0.00 in /  0 mm
10:47 52.4 °F /  11.3 °C 40.6 °F /  4.8 °C 30.38 in /  1028.7 hPa NNE 2.9 mph /  4.7 km/h 8.1 mph /  13 km/h 64 % 0.00 in /  0 mm
10:52 52.4 °F /  11.3 °C 41.0 °F /  5 °C 30.37 in /  1028.3 hPa ENE 3.6 mph /  5.8 km/h 11.5 mph /  18.5 km/h 65 % 0.00 in /  0 mm
11:02 52.6 °F /  11.4 °C 40.8 °F /  4.9 °C 30.37 in /  1028.3 hPa ENE 5.5 mph /  8.9 km/h 9.2 mph /  14.8 km/h 64 % 0.00 in /  0 mm
11:07 52.6 °F /  11.4 °C 40.8 °F /  4.9 °C 30.37 in /  1028.3 hPa NE 5.8 mph /  9.3 km/h 9.2 mph /  14.8 km/h 64 % 0.00 in /  0 mm
11:12 52.6 °F /  11.4 °C 41.6 °F /  5.3 °C 30.36 in /  1028 hPa NE 3.8 mph /  6.1 km/h 6.0 mph /  9.7 km/h 66 % 0.00 in /  0 mm
11:17 52.9 °F /  11.6 °C 41.4 °F /  5.2 °C 30.37 in /  1028.3 hPa ENE 7.2 mph /  11.6 km/h 9.2 mph /  14.8 km/h 65 % 0.00 in /  0 mm
11:22 53.0 °F /  11.7 °C 41.1 °F /  5.1 °C 30.37 in /  1028.3 hPa ENE 5.0 mph /  8 km/h 9.2 mph /  14.8 km/h 64 % 0.00 in /  0 mm
11:27 53.1 °F /  11.7 °C 41.2 °F /  5.1 °C 30.37 in /  1028.3 hPa ENE 4.4 mph /  7.1 km/h 9.2 mph /  14.8 km/h 64 % 0.00 in /  0 mm
11:32 53.2 °F /  11.8 °C 41.7 °F /  5.4 °C 30.37 in /  1028.3 hPa ENE 5.9 mph /  9.5 km/h 10.0 mph /  16.1 km/h 65 % 0.00 in /  0 mm
11:37 53.1 °F /  11.7 °C 41.2 °F /  5.1 °C 30.37 in /  1028.3 hPa ENE 5.5 mph /  8.9 km/h 9.2 mph /  14.8 km/h 64 % 0.00 in /  0 mm
11:42 53.0 °F /  11.7 °C 40.7 °F /  4.8 °C 30.36 in /  1028 hPa East 4.3 mph /  6.9 km/h 9.0 mph /  14.5 km/h 63 % 0.00 in /  0 mm
11:47 53.0 °F /  11.7 °C 41.1 °F /  5.1 °C 30.36 in /  1028 hPa ENE 4.2 mph /  6.8 km/h 8.1 mph /  13 km/h 64 % 0.00 in /  0 mm
11:52 53.2 °F /  11.8 °C 41.7 °F /  5.4 °C 30.36 in /  1028 hPa ENE 3.9 mph /  6.3 km/h 6.9 mph /  11.1 km/h 65 % 0.00 in /  0 mm
11:57 53.2 °F /  11.8 °C 41.3 °F /  5.2 °C 30.36 in /  1028 hPa ENE 2.8 mph /  4.5 km/h 8.1 mph /  13 km/h 64 % 0.00 in /  0 mm
12:02 53.3 °F /  11.8 °C 41.4 °F /  5.2 °C 30.35 in /  1027.7 hPa ENE 5.9 mph /  9.5 km/h 6.9 mph /  11.1 km/h 64 % 0.00 in /  0 mm
12:07 53.5 °F /  11.9 °C 41.6 °F /  5.3 °C 30.36 in /  1028 hPa ENE 5.3 mph /  8.5 km/h 8.1 mph /  13 km/h 64 % 0.00 in /  0 mm
12:12 53.7 °F /  12.1 °C 41.4 °F /  5.2 °C 30.36 in /  1028 hPa ENE 5.3 mph /  8.5 km/h 9.2 mph /  14.8 km/h 63 % 0.00 in /  0 mm
12:17 53.8 °F /  12.1 °C 41.5 °F /  5.3 °C 30.35 in /  1027.7 hPa ENE 4.8 mph /  7.7 km/h 7.0 mph /  11.3 km/h 63 % 0.00 in /  0 mm
12:23 53.8 °F /  12.1 °C 42.7 °F /  5.9 °C 30.35 in /  1027.7 hPa ENE 2.6 mph /  4.2 km/h 3.5 mph /  5.6 km/h 66 % 0.00 in /  0 mm
12:28 53.7 °F /  12.1 °C 42.2 °F /  5.7 °C 30.35 in /  1027.7 hPa East 6.1 mph /  9.8 km/h 8.1 mph /  13 km/h 65 % 0.00 in /  0 mm
12:33 53.4 °F /  11.9 °C 41.5 °F /  5.3 °C 30.35 in /  1027.7 hPa ENE 3.5 mph /  5.6 km/h 6.9 mph /  11.1 km/h 64 % 0.00 in /  0 mm
12:38 53.3 °F /  11.8 °C 41.4 °F /  5.2 °C 30.35 in /  1027.7 hPa ENE 5.4 mph /  8.7 km/h 8.1 mph /  13 km/h 64 % 0.00 in /  0 mm
12:43 53.1 °F /  11.7 °C 40.8 °F /  4.9 °C 30.35 in /  1027.7 hPa ENE 4.7 mph /  7.6 km/h 8.1 mph /  13 km/h 63 % 0.00 in /  0 mm
12:48 53.0 °F /  11.7 °C 41.5 °F /  5.3 °C 30.35 in /  1027.7 hPa ENE 4.3 mph /  6.9 km/h 6.9 mph /  11.1 km/h 65 % 0.00 in /  0 mm
12:58 53.2 °F /  11.8 °C 41.7 °F /  5.4 °C 30.35 in /  1027.7 hPa NE 3.4 mph /  5.5 km/h 4.6 mph /  7.4 km/h 65 % 0.00 in /  0 mm
13:03 53.3 °F /  11.8 °C 41.4 °F /  5.2 °C 30.35 in /  1027.7 hPa ENE 3.8 mph /  6.1 km/h 5.0 mph /  8 km/h 64 % 0.00 in /  0 mm
13:08 53.3 °F /  11.8 °C 41.4 °F /  5.2 °C 30.36 in /  1028 hPa ENE 1.1 mph /  1.8 km/h 2.3 mph /  3.7 km/h 64 % 0.00 in /  0 mm
13:13 53.4 °F /  11.9 °C 41.9 °F /  5.5 °C 30.35 in /  1027.7 hPa ENE 0.6 mph /  1 km/h 2.0 mph /  3.2 km/h 65 % 0.00 in /  0 mm
13:18 53.4 °F /  11.9 °C 41.9 °F /  5.5 °C 30.35 in /  1027.7 hPa East 1.2 mph /  1.9 km/h 3.5 mph /  5.6 km/h 65 % 0.00 in /  0 mm
13:23 53.5 °F /  11.9 °C 41.6 °F /  5.3 °C 30.35 in /  1027.7 hPa ENE 1.7 mph /  2.7 km/h 3.5 mph /  5.6 km/h 64 % 0.00 in /  0 mm
13:28 53.5 °F /  11.9 °C 40.4 °F /  4.7 °C 30.33 in /  1027 hPa NE 4.5 mph /  7.2 km/h 8.1 mph /  13 km/h 61 % 0.00 in /  0 mm
13:33 53.5 °F /  11.9 °C 41.6 °F /  5.3 °C 30.34 in /  1027.3 hPa East 0.9 mph /  1.4 km/h 2.0 mph /  3.2 km/h 64 % 0.00 in /  0 mm
13:38 53.6 °F /  12 °C 41.3 °F /  5.2 °C 30.34 in /  1027.3 hPa ENE 0.1 mph /  0.2 km/h 2.3 mph /  3.7 km/h 63 % 0.00 in /  0 mm
13:43 53.7 °F /  12.1 °C 41.4 °F /  5.2 °C 30.33 in /  1027 hPa ENE 0.6 mph /  1 km/h 2.0 mph /  3.2 km/h 63 % 0.00 in /  0 mm
13:48 53.8 °F /  12.1 °C 41.9 °F /  5.5 °C 30.33 in /  1027 hPa East 0.4 mph /  0.6 km/h 2.3 mph /  3.7 km/h 64 % 0.00 in /  0 mm
13:53 54.0 °F /  12.2 °C 42.1 °F /  5.6 °C 30.33 in /  1027 hPa East 0.4 mph /  0.6 km/h 2.3 mph /  3.7 km/h 64 % 0.00 in /  0 mm
13:58 54.2 °F /  12.3 °C 41.9 °F /  5.5 °C 30.33 in /  1027 hPa Calm   2.3 mph /  3.7 km/h 63 % 0.00 in /  0 mm
14:03 54.4 °F /  12.4 °C 42.1 °F /  5.6 °C 30.33 in /  1027 hPa East 1.2 mph /  1.9 km/h 2.0 mph /  3.2 km/h 63 % 0.00 in /  0 mm
14:09 54.5 °F /  12.5 °C 41.7 °F /  5.4 °C 30.32 in /  1026.6 hPa ENE 0.2 mph /  0.3 km/h 1.2 mph /  1.9 km/h 62 % 0.00 in /  0 mm
14:13 54.7 °F /  12.6 °C 42.8 °F /  6 °C 30.32 in /  1026.6 hPa ENE 0.1 mph /  0.2 km/h 2.3 mph /  3.7 km/h 64 % 0.00 in /  0 mm
14:18 54.7 °F /  12.6 °C 42.3 °F /  5.7 °C 30.32 in /  1026.6 hPa NE 0.4 mph /  0.6 km/h 2.3 mph /  3.7 km/h 63 % 0.00 in /  0 mm
14:23 54.8 °F /  12.7 °C 42.9 °F /  6.1 °C 30.32 in /  1026.6 hPa Calm   1.2 mph /  1.9 km/h 64 % 0.00 in /  0 mm
14:28 55.0 °F /  12.8 °C 43.0 °F /  6.1 °C 30.32 in /  1026.6 hPa NE 0.1 mph /  0.2 km/h 3.5 mph /  5.6 km/h 64 % 0.00 in /  0 mm
14:34 55.2 °F /  12.9 °C 43.6 °F /  6.4 °C 30.32 in /  1026.6 hPa ENE 3.6 mph /  5.8 km/h 4.0 mph /  6.4 km/h 65 % 0.00 in /  0 mm
14:39 55.2 °F /  12.9 °C 42.8 °F /  6 °C 30.31 in /  1026.3 hPa ENE 3.3 mph /  5.3 km/h 4.6 mph /  7.4 km/h 63 % 0.00 in /  0 mm
14:44 55.4 °F /  13 °C 43.0 °F /  6.1 °C 30.31 in /  1026.3 hPa NE 2.3 mph /  3.7 km/h 4.6 mph /  7.4 km/h 63 % 0.00 in /  0 mm
14:54 55.6 °F /  13.1 °C 42.8 °F /  6 °C 30.31 in /  1026.3 hPa NE 2.6 mph /  4.2 km/h 4.0 mph /  6.4 km/h 62 % 0.00 in /  0 mm
14:59 55.6 °F /  13.1 °C 42.8 °F /  6 °C 30.31 in /  1026.3 hPa ENE 0.6 mph /  1 km/h 8.1 mph /  13 km/h 62 % 0.00 in /  0 mm
15:00 55.5 °F /  13.1 °C 43.1 °F /  6.2 °C 30.31 in /  1026.3 hPa Calm   1.2 mph /  1.9 km/h 63 % 0.00 in /  0 mm
15:05 55.7 °F /  13.2 °C 43.7 °F /  6.5 °C 30.31 in /  1026.3 hPa ENE 0.1 mph /  0.2 km/h 1.2 mph /  1.9 km/h 64 % 0.00 in /  0 mm
15:10 55.7 °F /  13.2 °C 43.7 °F /  6.5 °C 30.31 in /  1026.3 hPa ENE 1.4 mph /  2.3 km/h 3.5 mph /  5.6 km/h 64 % 0.00 in /  0 mm
15:15 55.7 °F /  13.2 °C 43.3 °F /  6.3 °C 30.31 in /  1026.3 hPa ENE 0.9 mph /  1.4 km/h 2.3 mph /  3.7 km/h 63 % 0.00 in /  0 mm
15:20 55.5 °F /  13.1 °C 43.1 °F /  6.2 °C 30.31 in /  1026.3 hPa ENE 2.4 mph /  3.9 km/h 3.5 mph /  5.6 km/h 63 % 0.00 in /  0 mm
15:25 55.3 °F /  12.9 °C 43.7 °F /  6.5 °C 30.32 in /  1026.6 hPa Calm     65 % 0.00 in /  0 mm
15:30 55.3 °F /  12.9 °C 44.1 °F /  6.7 °C 30.31 in /  1026.3 hPa ENE 0.1 mph /  0.2 km/h 1.2 mph /  1.9 km/h 66 % 0.00 in /  0 mm
15:35 55.1 °F /  12.8 °C 44.3 °F /  6.8 °C 30.31 in /  1026.3 hPa NE 0.2 mph /  0.3 km/h 1.2 mph /  1.9 km/h 67 % 0.00 in /  0 mm
15:40 55.1 °F /  12.8 °C 43.5 °F /  6.4 °C 30.31 in /  1026.3 hPa Calm   1.2 mph /  1.9 km/h 65 % 0.00 in /  0 mm
15:45 55.0 °F /  12.8 °C 43.4 °F /  6.3 °C 30.32 in /  1026.6 hPa ENE 0.6 mph /  1 km/h 2.3 mph /  3.7 km/h 65 % 0.00 in /  0 mm
15:50 54.9 °F /  12.7 °C 43.7 °F /  6.5 °C 30.32 in /  1026.6 hPa ENE 1.7 mph /  2.7 km/h 3.0 mph /  4.8 km/h 66 % 0.00 in /  0 mm
15:55 54.8 °F /  12.7 °C 43.7 °F /  6.5 °C 30.32 in /  1026.6 hPa Calm   1.2 mph /  1.9 km/h 66 % 0.00 in /  0 mm
16:01 54.7 °F /  12.6 °C 43.6 °F /  6.4 °C 30.32 in /  1026.6 hPa ENE 2.7 mph /  4.3 km/h 3.5 mph /  5.6 km/h 66 % 0.00 in /  0 mm
16:06 54.6 °F /  12.6 °C 43.9 °F /  6.6 °C 30.32 in /  1026.6 hPa Calm   4.0 mph /  6.4 km/h 67 % 0.00 in /  0 mm
16:11 54.6 °F /  12.6 °C 43.9 °F /  6.6 °C 30.32 in /  1026.6 hPa ENE 1.0 mph /  1.6 km/h 2.0 mph /  3.2 km/h 67 % 0.00 in /  0 mm
16:16 54.6 °F /  12.6 °C 43.8 °F /  6.6 °C 30.32 in /  1026.6 hPa Calm   2.0 mph /  3.2 km/h 67 % 0.00 in /  0 mm
16:21 54.5 °F /  12.5 °C 43.8 °F /  6.6 °C 30.32 in /  1026.6 hPa Calm     67 % 0.00 in /  0 mm
16:26 54.5 °F /  12.5 °C 43.4 °F /  6.3 °C 30.32 in /  1026.6 hPa ENE 0.6 mph /  1 km/h 2.0 mph /  3.2 km/h 66 % 0.00 in /  0 mm
16:31 54.4 °F /  12.4 °C 43.3 °F /  6.3 °C 30.32 in /  1026.6 hPa ENE 1.0 mph /  1.6 km/h 4.0 mph /  6.4 km/h 66 % 0.00 in /  0 mm
16:36 54.4 °F /  12.4 °C 43.7 °F /  6.5 °C 30.32 in /  1026.6 hPa ENE 1.8 mph /  2.9 km/h 3.5 mph /  5.6 km/h 67 % 0.00 in /  0 mm
16:41 54.3 °F /  12.4 °C 43.2 °F /  6.2 °C 30.32 in /  1026.6 hPa Calm   2.0 mph /  3.2 km/h 66 % 0.00 in /  0 mm
16:46 54.3 °F /  12.4 °C 43.6 °F /  6.4 °C 30.32 in /  1026.6 hPa Calm   2.0 mph /  3.2 km/h 67 % 0.00 in /  0 mm
16:51 54.3 °F /  12.4 °C 44.0 °F /  6.7 °C 30.32 in /  1026.6 hPa NE 0.1 mph /  0.2 km/h 1.2 mph /  1.9 km/h 68 % 0.00 in /  0 mm
16:56 54.2 °F /  12.3 °C 44.2 °F /  6.8 °C 30.32 in /  1026.6 hPa ENE 0.8 mph /  1.3 km/h 2.3 mph /  3.7 km/h 69 % 0.00 in /  0 mm
17:01 54.1 °F /  12.3 °C 44.2 °F /  6.8 °C 30.32 in /  1026.6 hPa Calm     69 % 0.00 in /  0 mm
17:06 54.1 °F /  12.3 °C 44.5 °F /  6.9 °C 30.32 in /  1026.6 hPa Calm   1.2 mph /  1.9 km/h 70 % 0.00 in /  0 mm
17:12 54.0 °F /  12.2 °C 44.4 °F /  6.9 °C 30.32 in /  1026.6 hPa Calm     70 % 0.00 in /  0 mm
17:16 53.9 °F /  12.2 °C 44.3 °F /  6.8 °C 30.32 in /  1026.6 hPa Calm     70 % 0.00 in /  0 mm
17:22 53.8 °F /  12.1 °C 44.6 °F /  7 °C 30.32 in /  1026.6 hPa Calm     71 % 0.00 in /  0 mm
17:27 53.7 °F /  12.1 °C 44.5 °F /  6.9 °C 30.32 in /  1026.6 hPa Calm     71 % 0.00 in /  0 mm
17:32 53.6 °F /  12 °C 44.4 °F /  6.9 °C 30.32 in /  1026.6 hPa Calm     71 % 0.00 in /  0 mm
17:37 53.5 °F /  11.9 °C 44.3 °F /  6.8 °C 30.32 in /  1026.6 hPa Calm     71 % 0.00 in /  0 mm
17:42 53.3 °F /  11.8 °C 44.1 °F /  6.7 °C 30.32 in /  1026.6 hPa Calm     71 % 0.00 in /  0 mm
17:47 53.2 °F /  11.8 °C 44.0 °F /  6.7 °C 30.32 in /  1026.6 hPa ENE 0.1 mph /  0.2 km/h 1.2 mph /  1.9 km/h 71 % 0.00 in /  0 mm
17:52 53.1 °F /  11.7 °C 44.3 °F /  6.8 °C 30.32 in /  1026.6 hPa Calm     72 % 0.00 in /  0 mm
17:57 52.9 °F /  11.6 °C 44.1 °F /  6.7 °C 30.32 in /  1026.6 hPa Calm     72 % 0.00 in /  0 mm
18:02 52.7 °F /  11.5 °C 44.3 °F /  6.8 °C 30.36 in /  1028 hPa East 0.5 mph /  0.8 km/h 3.5 mph /  5.6 km/h 73 % 0.00 in /  0 mm
18:07 52.4 °F /  11.3 °C 44.4 °F /  6.9 °C 30.36 in /  1028 hPa East 1.8 mph /  2.9 km/h 3.0 mph /  4.8 km/h 74 % 0.00 in /  0 mm
18:13 52.2 °F /  11.2 °C 44.5 °F /  6.9 °C 30.35 in /  1027.7 hPa SE 2.3 mph /  3.7 km/h 3.5 mph /  5.6 km/h 75 % 0.00 in /  0 mm
18:18 51.9 °F /  11.1 °C 44.2 °F /  6.8 °C 30.35 in /  1027.7 hPa SE 2.9 mph /  4.7 km/h 3.5 mph /  5.6 km/h 75 % 0.00 in /  0 mm
18:24 51.7 °F /  10.9 °C 44.0 °F /  6.7 °C 30.33 in /  1027 hPa SE 1.0 mph /  1.6 km/h 3.5 mph /  5.6 km/h 75 % 0.00 in /  0 mm
18:29 51.5 °F /  10.8 °C 43.8 °F /  6.6 °C 30.33 in /  1027 hPa SE 1.7 mph /  2.7 km/h 2.3 mph /  3.7 km/h 75 % 0.00 in /  0 mm
18:34 51.3 °F /  10.7 °C 43.6 °F /  6.4 °C 30.33 in /  1027 hPa SE 1.5 mph /  2.4 km/h 3.5 mph /  5.6 km/h 75 % 0.00 in /  0 mm
18:39 51.1 °F /  10.6 °C 43.4 °F /  6.3 °C 30.33 in /  1027 hPa SSE 0.8 mph /  1.3 km/h 3.5 mph /  5.6 km/h 75 % 0.00 in /  0 mm
18:44 50.9 °F /  10.5 °C 43.6 °F /  6.4 °C 30.33 in /  1027 hPa SE 0.7 mph /  1.1 km/h 2.3 mph /  3.7 km/h 76 % 0.00 in /  0 mm
18:45 50.8 °F /  10.4 °C 43.5 °F /  6.4 °C 30.33 in /  1027 hPa SE 0.8 mph /  1.3 km/h 2.3 mph /  3.7 km/h 76 % 0.00 in /  0 mm
18:50 50.6 °F /  10.3 °C 43.3 °F /  6.3 °C 30.33 in /  1027 hPa SE 0.9 mph /  1.4 km/h 3.5 mph /  5.6 km/h 76 % 0.00 in /  0 mm
18:56 50.5 °F /  10.3 °C 43.2 °F /  6.2 °C 30.36 in /  1028 hPa SE 1.0 mph /  1.6 km/h 4.0 mph /  6.4 km/h 76 % 0.00 in /  0 mm
19:01 50.3 °F /  10.2 °C 43.4 °F /  6.3 °C 30.34 in /  1027.3 hPa SSE 1.2 mph /  1.9 km/h 3.5 mph /  5.6 km/h 77 % 0.00 in /  0 mm
19:06 50.2 °F /  10.1 °C 43.3 °F /  6.3 °C 30.33 in /  1027 hPa SE 0.6 mph /  1 km/h 3.5 mph /  5.6 km/h 77 % 0.00 in /  0 mm
19:11 50.0 °F /  10 °C 43.1 °F /  6.2 °C 30.33 in /  1027 hPa SE 1.0 mph /  1.6 km/h 5.0 mph /  8 km/h 77 % 0.00 in /  0 mm
19:16 49.9 °F /  9.9 °C 43.3 °F /  6.3 °C 30.33 in /  1027 hPa SE 1.0 mph /  1.6 km/h 5.0 mph /  8 km/h 78 % 0.00 in /  0 mm
19:21 49.8 °F /  9.9 °C 43.2 °F /  6.2 °C 30.33 in /  1027 hPa Calm   4.0 mph /  6.4 km/h 78 % 0.00 in /  0 mm
19:26 49.7 °F /  9.8 °C 43.5 °F /  6.4 °C 30.33 in /  1027 hPa Calm   1.0 mph /  1.6 km/h 79 % 0.00 in /  0 mm
19:31 49.6 °F /  9.8 °C 43.4 °F /  6.3 °C 30.33 in /  1027 hPa Calm     79 % 0.00 in /  0 mm
19:36 49.5 °F /  9.7 °C 43.3 °F /  6.3 °C 30.33 in /  1027 hPa Calm   2.0 mph /  3.2 km/h 79 % 0.00 in /  0 mm
19:41 49.4 °F /  9.7 °C 43.2 °F /  6.2 °C 30.33 in /  1027 hPa Calm   2.0 mph /  3.2 km/h 79 % 0.00 in /  0 mm
19:46 49.3 °F /  9.6 °C 43.4 °F /  6.3 °C 30.33 in /  1027 hPa Calm   2.0 mph /  3.2 km/h 80 % 0.00 in /  0 mm
19:51 49.3 °F /  9.6 °C 43.4 °F /  6.3 °C 30.33 in /  1027 hPa Calm   1.0 mph /  1.6 km/h 80 % 0.00 in /  0 mm
19:56 49.2 °F /  9.6 °C 43.3 °F /  6.3 °C 30.33 in /  1027 hPa Calm   2.0 mph /  3.2 km/h 80 % 0.00 in /  0 mm
20:01 49.2 °F /  9.6 °C 43.3 °F /  6.3 °C 30.33 in /  1027 hPa Calm   2.3 mph /  3.7 km/h 80 % 0.00 in /  0 mm
20:06 49.1 °F /  9.5 °C 43.5 °F /  6.4 °C 30.33 in /  1027 hPa Calm   1.2 mph /  1.9 km/h 81 % 0.00 in /  0 mm
20:11 49.1 °F /  9.5 °C 43.5 °F /  6.4 °C 30.33 in /  1027 hPa Calm   2.3 mph /  3.7 km/h 81 % 0.00 in /  0 mm
20:16 49.0 °F /  9.4 °C 43.4 °F /  6.3 °C 30.33 in /  1027 hPa SE 0.8 mph /  1.3 km/h 2.3 mph /  3.7 km/h 81 % 0.00 in /  0 mm
20:21 49.0 °F /  9.4 °C 43.7 °F /  6.5 °C 30.32 in /  1026.6 hPa Calm   1.2 mph /  1.9 km/h 82 % 0.00 in /  0 mm
20:26 48.9 °F /  9.4 °C 43.6 °F /  6.4 °C 30.33 in /  1027 hPa SE 1.0 mph /  1.6 km/h 2.3 mph /  3.7 km/h 82 % 0.00 in /  0 mm
20:31 48.8 °F /  9.3 °C 43.5 °F /  6.4 °C 30.32 in /  1026.6 hPa Calm     82 % 0.00 in /  0 mm
20:36 48.8 °F /  9.3 °C 43.5 °F /  6.4 °C 30.32 in /  1026.6 hPa Calm     82 % 0.00 in /  0 mm
20:41 48.7 °F /  9.3 °C 43.8 °F /  6.6 °C 30.32 in /  1026.6 hPa Calm     83 % 0.00 in /  0 mm
20:46 48.7 °F /  9.3 °C 43.8 °F /  6.6 °C 30.32 in /  1026.6 hPa SE 0.3 mph /  0.5 km/h 2.3 mph /  3.7 km/h 83 % 0.00 in /  0 mm
20:51 48.6 °F /  9.2 °C 43.7 °F /  6.5 °C 30.32 in /  1026.6 hPa Calm     83 % 0.00 in /  0 mm
20:56 48.6 °F /  9.2 °C 44.0 °F /  6.7 °C 30.33 in /  1027 hPa Calm   1.2 mph /  1.9 km/h 84 % 0.00 in /  0 mm
21:01 48.5 °F /  9.2 °C 43.9 °F /  6.6 °C 30.32 in /  1026.6 hPa Calm   1.2 mph /  1.9 km/h 84 % 0.00 in /  0 mm
21:06 48.5 °F /  9.2 °C 43.9 °F /  6.6 °C 30.32 in /  1026.6 hPa Calm     84 % 0.00 in /  0 mm
21:11 48.4 °F /  9.1 °C 43.8 °F /  6.6 °C 30.33 in /  1027 hPa SE 0.1 mph /  0.2 km/h 1.0 mph /  1.6 km/h 84 % 0.00 in /  0 mm
21:16 48.5 °F /  9.2 °C 44.2 °F /  6.8 °C 30.33 in /  1027 hPa SE 0.2 mph /  0.3 km/h 1.2 mph /  1.9 km/h 85 % 0.00 in /  0 mm
21:21 48.5 °F /  9.2 °C 44.8 °F /  7.1 °C 30.32 in /  1026.6 hPa ESE 1.0 mph /  1.6 km/h 1.2 mph /  1.9 km/h 87 % 0.00 in /  0 mm
21:26 48.7 °F /  9.3 °C 45.3 °F /  7.4 °C 30.32 in /  1026.6 hPa ESE 0.9 mph /  1.4 km/h 2.3 mph /  3.7 km/h 88 % 0.00 in /  0 mm
21:32 49.0 °F /  9.4 °C 45.6 °F /  7.6 °C 30.32 in /  1026.6 hPa ESE 0.6 mph /  1 km/h 2.3 mph /  3.7 km/h 88 % 0.00 in /  0 mm
21:37 49.3 °F /  9.6 °C 45.9 °F /  7.7 °C 30.32 in /  1026.6 hPa ESE 0.7 mph /  1.1 km/h 3.5 mph /  5.6 km/h 88 % 0.00 in /  0 mm
21:42 49.6 °F /  9.8 °C 46.2 °F /  7.9 °C 30.33 in /  1027 hPa ESE 0.4 mph /  0.6 km/h 2.3 mph /  3.7 km/h 88 % 0.00 in /  0 mm
21:47 49.9 °F /  9.9 °C 46.5 °F /  8.1 °C 30.33 in /  1027 hPa East 1.8 mph /  2.9 km/h 3.5 mph /  5.6 km/h 88 % 0.00 in /  0 mm
21:52 50.3 °F /  10.2 °C 46.9 °F /  8.3 °C 30.32 in /  1026.6 hPa ENE 1.8 mph /  2.9 km/h 5.8 mph /  9.3 km/h 88 % 0.00 in /  0 mm
21:57 50.6 °F /  10.3 °C 46.9 °F /  8.3 °C 30.32 in /  1026.6 hPa East 1.9 mph /  3.1 km/h 3.5 mph /  5.6 km/h 87 % 0.00 in /  0 mm
22:02 50.9 °F /  10.5 °C 46.9 °F /  8.3 °C 30.31 in /  1026.3 hPa East 2.7 mph /  4.3 km/h 4.6 mph /  7.4 km/h 86 % 0.00 in /  0 mm
22:07 51.1 °F /  10.6 °C 47.1 °F /  8.4 °C 30.31 in /  1026.3 hPa East 2.4 mph /  3.9 km/h 5.0 mph /  8 km/h 86 % 0.00 in /  0 mm
22:12 51.4 °F /  10.8 °C 47.0 °F /  8.3 °C 30.31 in /  1026.3 hPa East 1.1 mph /  1.8 km/h 2.3 mph /  3.7 km/h 85 % 0.00 in /  0 mm
22:17 51.5 °F /  10.8 °C 47.1 °F /  8.4 °C 30.31 in /  1026.3 hPa East 1.2 mph /  1.9 km/h 2.3 mph /  3.7 km/h 85 % 0.00 in /  0 mm
22:22 51.6 °F /  10.9 °C 47.2 °F /  8.4 °C 30.31 in /  1026.3 hPa ESE 1.6 mph /  2.6 km/h 5.0 mph /  8 km/h 85 % 0.00 in /  0 mm
22:27 51.8 °F /  11 °C 47.1 °F /  8.4 °C 30.31 in /  1026.3 hPa ENE 1.3 mph /  2.1 km/h 3.5 mph /  5.6 km/h 84 % 0.00 in /  0 mm
22:32 51.8 °F /  11 °C 47.1 °F /  8.4 °C 30.30 in /  1026 hPa East 1.3 mph /  2.1 km/h 4.6 mph /  7.4 km/h 84 % 0.00 in /  0 mm
22:37 51.9 °F /  11.1 °C 46.9 °F /  8.3 °C 30.31 in /  1026.3 hPa East 2.5 mph /  4 km/h 4.6 mph /  7.4 km/h 83 % 0.00 in /  0 mm
22:42 51.9 °F /  11.1 °C 46.9 °F /  8.3 °C 30.31 in /  1026.3 hPa East 0.5 mph /  0.8 km/h 2.3 mph /  3.7 km/h 83 % 0.00 in /  0 mm
22:47 51.9 °F /  11.1 °C 46.9 °F /  8.3 °C 30.33 in /  1027 hPa Calm   1.0 mph /  1.6 km/h 83 % 0.00 in /  0 mm
22:52 51.9 °F /  11.1 °C 46.9 °F /  8.3 °C 30.33 in /  1027 hPa East 0.3 mph /  0.5 km/h 1.2 mph /  1.9 km/h 83 % 0.00 in /  0 mm
22:57 51.9 °F /  11.1 °C 46.9 °F /  8.3 °C 30.33 in /  1027 hPa East 0.1 mph /  0.2 km/h 2.3 mph /  3.7 km/h 83 % 0.00 in /  0 mm
23:02 51.9 °F /  11.1 °C 46.9 °F /  8.3 °C 30.34 in /  1027.3 hPa Calm     83 % 0.00 in /  0 mm
23:08 51.9 °F /  11.1 °C 46.9 °F /  8.3 °C 30.33 in /  1027 hPa East 0.4 mph /  0.6 km/h 2.3 mph /  3.7 km/h 83 % 0.00 in /  0 mm
23:15 51.9 °F /  11.1 °C 46.9 °F /  8.3 °C 30.34 in /  1027.3 hPa Calm   1.2 mph /  1.9 km/h 83 % 0.00 in /  0 mm
23:20 51.9 °F /  11.1 °C 46.9 °F /  8.3 °C 30.37 in /  1028.3 hPa Calm     83 % 0.00 in /  0 mm
23:21 51.9 °F /  11.1 °C 46.9 °F /  8.3 °C 30.37 in /  1028.3 hPa ESE 0.7 mph /  1.1 km/h 2.3 mph /  3.7 km/h 83 % 0.00 in /  0 mm
23:26 51.9 °F /  11.1 °C 46.9 °F /  8.3 °C 30.37 in /  1028.3 hPa Calm   3.0 mph /  4.8 km/h 83 % 0.00 in /  0 mm
23:27 51.9 °F /  11.1 °C 46.9 °F /  8.3 °C 30.10 in /  1019.2 hPa East 0.3 mph /  0.5 km/h 2.3 mph /  3.7 km/h 83 % 0.00 in /  0 mm
23:32 52.0 °F /  11.1 °C 47.0 °F /  8.3 °C 30.34 in /  1027.3 hPa SE 0.3 mph /  0.5 km/h 1.2 mph /  1.9 km/h 83 % 0.00 in /  0 mm
23:36 52.0 °F /  11.1 °C 47.0 °F /  8.3 °C 30.34 in /  1027.3 hPa SE 0.3 mph /  0.5 km/h 1.2 mph /  1.9 km/h 83 % 0.00 in /  0 mm
23:41 52.1 °F /  11.2 °C 47.1 °F /  8.4 °C 30.35 in /  1027.7 hPa SE 0.1 mph /  0.2 km/h 1.2 mph /  1.9 km/h 83 % 0.00 in /  0 mm
23:46 52.1 °F /  11.2 °C 47.1 °F /  8.4 °C 30.36 in /  1028 hPa SE 0.1 mph /  0.2 km/h 1.2 mph /  1.9 km/h 83 % 0.00 in /  0 mm
23:51 52.2 °F /  11.2 °C 47.2 °F /  8.4 °C 30.36 in /  1028 hPa SE 1.3 mph /  2.1 km/h 2.3 mph /  3.7 km/h 83 % 0.00 in /  0 mm
23:56 52.3 °F /  11.3 °C 47.3 °F /  8.5 °C 30.36 in /  1028 hPa ENE 1.3 mph /  2.1 km/h 2.3 mph /  3.7 km/h 83 % 0.00 in /  0 mm
Crab Meadow Weather
Compliments of Weather Underground - 3 mb

Script developed by  Jim McMurry - jmcmurry@mwt.net Adapted for the template by  Wim van der Kuil - Leuven-Template.eu

Weather Terms: Ice Storm Warning - Accumulations of 1/4 inch or more of freezing rain.